sensor_id;sensor_type;location;lat;lon;timestamp;temperature;humidity
15115;DHT22;7658;51.456;7.622;2023-02-28T00:00:39;-0.50;99.90
15115;DHT22;7658;51.456;7.622;2023-02-28T00:03:05;-0.60;99.90
15115;DHT22;7658;51.456;7.622;2023-02-28T00:05:31;-0.60;99.90
15115;DHT22;7658;51.456;7.622;2023-02-28T00:07:57;-0.60;99.90
15115;DHT22;7658;51.456;7.622;2023-02-28T00:10:28;-0.60;99.90
15115;DHT22;7658;51.456;7.622;2023-02-28T00:12:58;-0.60;99.90
15115;DHT22;7658;51.456;7.622;2023-02-28T00:15:24;-0.50;99.90
15115;DHT22;7658;51.456;7.622;2023-02-28T00:17:51;-0.50;99.90
15115;DHT22;7658;51.456;7.622;2023-02-28T00:20:17;-0.40;99.90
15115;DHT22;7658;51.456;7.622;2023-02-28T00:22:51;-0.30;99.90
15115;DHT22;7658;51.456;7.622;2023-02-28T00:25:20;-0.30;99.90
15115;DHT22;7658;51.456;7.622;2023-02-28T00:27:46;-0.30;99.90
15115;DHT22;7658;51.456;7.622;2023-02-28T00:30:17;-0.30;99.90
15115;DHT22;7658;51.456;7.622;2023-02-28T00:32:44;-0.30;99.90
15115;DHT22;7658;51.456;7.622;2023-02-28T00:35:10;-0.40;99.90
15115;DHT22;7658;51.456;7.622;2023-02-28T00:37:36;-0.40;99.90
15115;DHT22;7658;51.456;7.622;2023-02-28T00:40:03;-0.40;99.90
15115;DHT22;7658;51.456;7.622;2023-02-28T00:42:30;-0.50;99.90
15115;DHT22;7658;51.456;7.622;2023-02-28T00:44:56;-0.50;99.90
15115;DHT22;7658;51.456;7.622;2023-02-28T00:47:21;-0.50;99.90
15115;DHT22;7658;51.456;7.622;2023-02-28T00:49:47;-0.60;99.90
15115;DHT22;7658;51.456;7.622;2023-02-28T00:52:13;-0.60;99.90
15115;DHT22;7658;51.456;7.622;2023-02-28T00:54:39;-0.60;99.90
15115;DHT22;7658;51.456;7.622;2023-02-28T00:57:05;-0.70;99.90
15115;DHT22;7658;51.456;7.622;2023-02-28T00:59:30;-0.70;99.90
15115;DHT22;7658;51.456;7.622;2023-02-28T01:01:56;-0.90;99.90
15115;DHT22;7658;51.456;7.622;2023-02-28T01:04:22;-0.90;99.90
15115;DHT22;7658;51.456;7.622;2023-02-28T01:06:48;-0.90;99.90
15115;DHT22;7658;51.456;7.622;2023-02-28T01:09:13;-0.80;99.90
15115;DHT22;7658;51.456;7.622;2023-02-28T01:11:39;-0.90;99.90
15115;DHT22;7658;51.456;7.622;2023-02-28T01:14:08;-0.90;99.90
15115;DHT22;7658;51.456;7.622;2023-02-28T01:16:34;-0.90;99.90
15115;DHT22;7658;51.456;7.622;2023-02-28T01:18:59;-0.90;99.90
15115;DHT22;7658;51.456;7.622;2023-02-28T01:21:25;-1.00;99.90
15115;DHT22;7658;51.456;7.622;2023-02-28T01:23:51;-1.10;99.90
15115;DHT22;7658;51.456;7.622;2023-02-28T01:26:22;-1.10;99.90
15115;DHT22;7658;51.456;7.622;2023-02-28T01:28:48;-1.40;99.90
15115;DHT22;7658;51.456;7.622;2023-02-28T01:31:15;-1.40;99.90
15115;DHT22;7658;51.456;7.622;2023-02-28T01:33:41;-1.40;99.90
15115;DHT22;7658;51.456;7.622;2023-02-28T01:36:21;-1.40;99.90
15115;DHT22;7658;51.456;7.622;2023-02-28T01:38:47;-1.60;99.90
15115;DHT22;7658;51.456;7.622;2023-02-28T01:41:25;-1.60;99.90
15115;DHT22;7658;51.456;7.622;2023-02-28T01:44:02;-1.50;99.90
15115;DHT22;7658;51.456;7.622;2023-02-28T01:46:30;-1.50;99.90
15115;DHT22;7658;51.456;7.622;2023-02-28T01:51:39;-1.40;99.90
15115;DHT22;7658;51.456;7.622;2023-02-28T01:54:15;-1.40;99.90
15115;DHT22;7658;51.456;7.622;2023-02-28T01:56:49;-1.50;99.90
15115;DHT22;7658;51.456;7.622;2023-02-28T01:59:27;-1.60;99.90
15115;DHT22;7658;51.456;7.622;2023-02-28T02:01:55;-1.60;99.90
15115;DHT22;7658;51.456;7.622;2023-02-28T02:04:24;-1.50;99.90
15115;DHT22;7658;51.456;7.622;2023-02-28T02:06:52;-1.40;99.90
15115;DHT22;7658;51.456;7.622;2023-02-28T02:09:17;-1.50;99.90
15115;DHT22;7658;51.456;7.622;2023-02-28T02:11:44;-1.50;99.90
15115;DHT22;7658;51.456;7.622;2023-02-28T02:16:56;-1.60;99.90
15115;DHT22;7658;51.456;7.622;2023-02-28T02:22:43;-1.60;99.90
15115;DHT22;7658;51.456;7.622;2023-02-28T02:28:11;-2.00;99.90
15115;DHT22;7658;51.456;7.622;2023-02-28T02:36:45;-2.10;99.90
15115;DHT22;7658;51.456;7.622;2023-02-28T02:45:14;-2.20;99.90
15115;DHT22;7658;51.456;7.622;2023-02-28T02:47:43;-2.10;99.90
15115;DHT22;7658;51.456;7.622;2023-02-28T02:50:16;-2.10;99.90
15115;DHT22;7658;51.456;7.622;2023-02-28T02:52:51;-2.00;99.90
15115;DHT22;7658;51.456;7.622;2023-02-28T02:55:19;-2.00;99.90
15115;DHT22;7658;51.456;7.622;2023-02-28T02:57:53;-2.00;99.90
15115;DHT22;7658;51.456;7.622;2023-02-28T03:00:25;-2.00;99.90
15115;DHT22;7658;51.456;7.622;2023-02-28T03:02:54;-2.10;99.90
15115;DHT22;7658;51.456;7.622;2023-02-28T03:05:27;-2.20;99.90
15115;DHT22;7658;51.456;7.622;2023-02-28T03:07:54;-2.20;99.90
15115;DHT22;7658;51.456;7.622;2023-02-28T03:10:48;-2.20;99.90
15115;DHT22;7658;51.456;7.622;2023-02-28T03:24:09;-2.30;99.90
15115;DHT22;7658;51.456;7.622;2023-02-28T03:26:42;-2.30;99.90
15115;DHT22;7658;51.456;7.622;2023-02-28T03:29:21;-2.20;99.90
15115;DHT22;7658;51.456;7.622;2023-02-28T03:31:53;-2.20;99.90
15115;DHT22;7658;51.456;7.622;2023-02-28T03:34:31;-2.20;99.90
15115;DHT22;7658;51.456;7.622;2023-02-28T03:37:17;-2.20;99.90
15115;DHT22;7658;51.456;7.622;2023-02-28T03:39:47;-2.20;99.90
15115;DHT22;7658;51.456;7.622;2023-02-28T03:42:18;-2.30;99.90
15115;DHT22;7658;51.456;7.622;2023-02-28T03:44:51;-2.20;99.90
15115;DHT22;7658;51.456;7.622;2023-02-28T03:50:20;-2.30;99.90
15115;DHT22;7658;51.456;7.622;2023-02-28T03:52:51;-2.30;99.90
15115;DHT22;7658;51.456;7.622;2023-02-28T03:55:19;-2.20;99.90
15115;DHT22;7658;51.456;7.622;2023-02-28T03:58:03;-2.20;99.90
15115;DHT22;7658;51.456;7.622;2023-02-28T04:00:44;-2.20;99.90
15115;DHT22;7658;51.456;7.622;2023-02-28T04:03:11;-2.30;99.90
15115;DHT22;7658;51.456;7.622;2023-02-28T04:05:50;-2.30;99.90
15115;DHT22;7658;51.456;7.622;2023-02-28T04:08:17;-2.50;99.90
15115;DHT22;7658;51.456;7.622;2023-02-28T04:10:46;-2.70;99.90
15115;DHT22;7658;51.456;7.622;2023-02-28T04:13:13;-2.80;99.90
15115;DHT22;7658;51.456;7.622;2023-02-28T04:15:39;-2.80;99.90
15115;DHT22;7658;51.456;7.622;2023-02-28T04:18:05;-2.70;99.90
15115;DHT22;7658;51.456;7.622;2023-02-28T04:20:31;-2.60;99.90
15115;DHT22;7658;51.456;7.622;2023-02-28T04:22:57;-2.70;99.90
15115;DHT22;7658;51.456;7.622;2023-02-28T04:25:22;-2.90;99.90
15115;DHT22;7658;51.456;7.622;2023-02-28T04:27:48;-3.00;99.90
15115;DHT22;7658;51.456;7.622;2023-02-28T04:30:14;-2.90;99.90
15115;DHT22;7658;51.456;7.622;2023-02-28T04:32:40;-3.00;99.90
15115;DHT22;7658;51.456;7.622;2023-02-28T04:35:06;-3.10;99.90
15115;DHT22;7658;51.456;7.622;2023-02-28T04:37:32;-3.20;99.90
15115;DHT22;7658;51.456;7.622;2023-02-28T04:40:01;-3.30;99.90
15115;DHT22;7658;51.456;7.622;2023-02-28T04:42:26;-3.20;99.90
15115;DHT22;7658;51.456;7.622;2023-02-28T04:44:52;-3.00;99.90
15115;DHT22;7658;51.456;7.622;2023-02-28T04:47:18;-3.00;99.90
15115;DHT22;7658;51.456;7.622;2023-02-28T04:49:43;-2.90;99.90
15115;DHT22;7658;51.456;7.622;2023-02-28T04:52:09;-2.80;99.90
15115;DHT22;7658;51.456;7.622;2023-02-28T04:54:35;-2.80;99.90
15115;DHT22;7658;51.456;7.622;2023-02-28T04:57:03;-2.80;99.90
15115;DHT22;7658;51.456;7.622;2023-02-28T04:59:29;-2.80;99.90
15115;DHT22;7658;51.456;7.622;2023-02-28T05:01:55;-2.70;99.90
15115;DHT22;7658;51.456;7.622;2023-02-28T05:04:21;-2.70;99.90
15115;DHT22;7658;51.456;7.622;2023-02-28T05:06:46;-3.00;99.90
15115;DHT22;7658;51.456;7.622;2023-02-28T05:09:12;-3.10;99.90
15115;DHT22;7658;51.456;7.622;2023-02-28T05:11:39;-3.30;99.90
15115;DHT22;7658;51.456;7.622;2023-02-28T05:14:08;-3.20;99.90
15115;DHT22;7658;51.456;7.622;2023-02-28T05:16:35;-3.40;99.90
15115;DHT22;7658;51.456;7.622;2023-02-28T05:19:01;-3.40;99.90
15115;DHT22;7658;51.456;7.622;2023-02-28T05:21:33;-3.50;99.90
15115;DHT22;7658;51.456;7.622;2023-02-28T05:24:02;-3.50;99.90
15115;DHT22;7658;51.456;7.622;2023-02-28T05:26:29;-3.50;99.90
15115;DHT22;7658;51.456;7.622;2023-02-28T05:28:55;-3.50;99.90
15115;DHT22;7658;51.456;7.622;2023-02-28T05:31:21;-3.40;99.90
15115;DHT22;7658;51.456;7.622;2023-02-28T05:33:47;-3.30;99.90
15115;DHT22;7658;51.456;7.622;2023-02-28T05:36:13;-3.20;99.90
15115;DHT22;7658;51.456;7.622;2023-02-28T05:38:39;-3.40;99.90
15115;DHT22;7658;51.456;7.622;2023-02-28T05:41:09;-3.40;99.90
15115;DHT22;7658;51.456;7.622;2023-02-28T05:43:36;-3.60;99.90
15115;DHT22;7658;51.456;7.622;2023-02-28T05:46:06;-3.60;99.90
15115;DHT22;7658;51.456;7.622;2023-02-28T05:48:33;-3.70;99.90
15115;DHT22;7658;51.456;7.622;2023-02-28T05:50:59;-3.70;99.90
15115;DHT22;7658;51.456;7.622;2023-02-28T05:53:25;-3.70;99.90
15115;DHT22;7658;51.456;7.622;2023-02-28T05:55:51;-3.80;99.90
15115;DHT22;7658;51.456;7.622;2023-02-28T05:58:18;-3.70;99.90
15115;DHT22;7658;51.456;7.622;2023-02-28T06:00:44;-3.60;99.90
15115;DHT22;7658;51.456;7.622;2023-02-28T06:03:10;-3.50;99.90
15115;DHT22;7658;51.456;7.622;2023-02-28T06:05:35;-3.70;99.90
15115;DHT22;7658;51.456;7.622;2023-02-28T06:08:01;-3.80;99.90
15115;DHT22;7658;51.456;7.622;2023-02-28T06:10:27;-3.90;99.90
15115;DHT22;7658;51.456;7.622;2023-02-28T06:12:52;-3.80;99.90
15115;DHT22;7658;51.456;7.622;2023-02-28T06:15:18;-3.90;99.90
15115;DHT22;7658;51.456;7.622;2023-02-28T06:17:44;-3.90;99.90
15115;DHT22;7658;51.456;7.622;2023-02-28T06:20:11;-3.90;99.90
15115;DHT22;7658;51.456;7.622;2023-02-28T06:22:39;-3.90;99.90
15115;DHT22;7658;51.456;7.622;2023-02-28T06:25:05;-4.00;99.90
15115;DHT22;7658;51.456;7.622;2023-02-28T06:27:33;-4.00;99.90
15115;DHT22;7658;51.456;7.622;2023-02-28T06:29:59;-4.00;99.90
15115;DHT22;7658;51.456;7.622;2023-02-28T06:32:24;-4.10;99.90
15115;DHT22;7658;51.456;7.622;2023-02-28T06:34:50;-4.00;99.90
15115;DHT22;7658;51.456;7.622;2023-02-28T06:37:17;-4.00;99.90
15115;DHT22;7658;51.456;7.622;2023-02-28T06:39:49;-3.90;99.90
15115;DHT22;7658;51.456;7.622;2023-02-28T06:42:15;-3.90;99.90
15115;DHT22;7658;51.456;7.622;2023-02-28T06:44:40;-3.80;99.90
15115;DHT22;7658;51.456;7.622;2023-02-28T06:47:08;-3.70;99.90
15115;DHT22;7658;51.456;7.622;2023-02-28T06:49:35;-3.70;99.90
15115;DHT22;7658;51.456;7.622;2023-02-28T06:52:01;-3.80;99.90
15115;DHT22;7658;51.456;7.622;2023-02-28T06:54:28;-3.70;99.90
15115;DHT22;7658;51.456;7.622;2023-02-28T06:56:54;-3.70;99.90
15115;DHT22;7658;51.456;7.622;2023-02-28T06:59:20;-3.60;99.90
15115;DHT22;7658;51.456;7.622;2023-02-28T07:01:45;-3.50;99.90
15115;DHT22;7658;51.456;7.622;2023-02-28T07:04:11;-3.40;99.90
15115;DHT22;7658;51.456;7.622;2023-02-28T07:06:38;-3.40;99.90
15115;DHT22;7658;51.456;7.622;2023-02-28T07:09:04;-3.30;99.90
15115;DHT22;7658;51.456;7.622;2023-02-28T07:11:30;-3.40;99.90
15115;DHT22;7658;51.456;7.622;2023-02-28T07:13:57;-3.30;99.90
15115;DHT22;7658;51.456;7.622;2023-02-28T07:16:24;-3.30;99.90
15115;DHT22;7658;51.456;7.622;2023-02-28T07:18:52;-3.30;99.90
15115;DHT22;7658;51.456;7.622;2023-02-28T07:21:18;-3.30;99.90
15115;DHT22;7658;51.456;7.622;2023-02-28T07:23:44;-3.20;99.90
15115;DHT22;7658;51.456;7.622;2023-02-28T07:26:15;-3.20;99.90
15115;DHT22;7658;51.456;7.622;2023-02-28T07:28:43;-3.10;99.90
15115;DHT22;7658;51.456;7.622;2023-02-28T07:31:10;-2.90;99.90
15115;DHT22;7658;51.456;7.622;2023-02-28T07:33:36;-2.80;99.90
15115;DHT22;7658;51.456;7.622;2023-02-28T07:36:04;-2.80;99.90
15115;DHT22;7658;51.456;7.622;2023-02-28T07:38:31;-2.70;99.90
15115;DHT22;7658;51.456;7.622;2023-02-28T07:40:56;-2.70;99.90
15115;DHT22;7658;51.456;7.622;2023-02-28T07:43:22;-2.50;99.90
15115;DHT22;7658;51.456;7.622;2023-02-28T07:45:48;-2.50;99.90
15115;DHT22;7658;51.456;7.622;2023-02-28T07:48:13;-2.40;99.90
15115;DHT22;7658;51.456;7.622;2023-02-28T07:50:39;-2.30;99.90
15115;DHT22;7658;51.456;7.622;2023-02-28T07:53:05;-2.20;99.90
15115;DHT22;7658;51.456;7.622;2023-02-28T07:55:31;-2.20;99.90
15115;DHT22;7658;51.456;7.622;2023-02-28T07:57:57;-2.20;99.90
15115;DHT22;7658;51.456;7.622;2023-02-28T08:00:23;-2.10;99.90
15115;DHT22;7658;51.456;7.622;2023-02-28T08:02:49;-2.00;99.90
15115;DHT22;7658;51.456;7.622;2023-02-28T08:05:15;-1.90;99.90
15115;DHT22;7658;51.456;7.622;2023-02-28T08:07:41;-1.90;99.90
15115;DHT22;7658;51.456;7.622;2023-02-28T08:10:07;-1.80;99.90
15115;DHT22;7658;51.456;7.622;2023-02-28T08:12:34;-1.80;99.90
15115;DHT22;7658;51.456;7.622;2023-02-28T08:14:59;-1.70;99.90
15115;DHT22;7658;51.456;7.622;2023-02-28T08:17:25;-1.60;99.90
15115;DHT22;7658;51.456;7.622;2023-02-28T08:19:51;-1.60;99.90
15115;DHT22;7658;51.456;7.622;2023-02-28T08:22:17;-1.50;99.90
15115;DHT22;7658;51.456;7.622;2023-02-28T08:24:43;-1.40;99.90
15115;DHT22;7658;51.456;7.622;2023-02-28T08:27:09;-1.20;99.90
15115;DHT22;7658;51.456;7.622;2023-02-28T08:29:37;-0.90;99.90
15115;DHT22;7658;51.456;7.622;2023-02-28T08:32:04;-0.60;99.90
15115;DHT22;7658;51.456;7.622;2023-02-28T08:34:30;-0.50;99.90
15115;DHT22;7658;51.456;7.622;2023-02-28T08:36:55;-0.30;99.90
15115;DHT22;7658;51.456;7.622;2023-02-28T08:39:21;-0.10;99.90
15115;DHT22;7658;51.456;7.622;2023-02-28T08:41:47;-0.10;99.90
15115;DHT22;7658;51.456;7.622;2023-02-28T08:44:12;-0.10;99.90
15115;DHT22;7658;51.456;7.622;2023-02-28T08:46:38;-0.10;99.90
15115;DHT22;7658;51.456;7.622;2023-02-28T08:49:04;-0.10;99.90
15115;DHT22;7658;51.456;7.622;2023-02-28T08:51:30;-0.10;99.90
15115;DHT22;7658;51.456;7.622;2023-02-28T08:53:59;-0.10;99.90
15115;DHT22;7658;51.456;7.622;2023-02-28T08:56:26;-0.20;99.90
15115;DHT22;7658;51.456;7.622;2023-02-28T08:58:54;-0.30;99.90
15115;DHT22;7658;51.456;7.622;2023-02-28T09:01:29;-0.40;99.90
15115;DHT22;7658;51.456;7.622;2023-02-28T09:03:57;-0.40;99.90
15115;DHT22;7658;51.456;7.622;2023-02-28T09:06:25;-0.30;99.90
15115;DHT22;7658;51.456;7.622;2023-02-28T09:08:51;-0.30;99.90
15115;DHT22;7658;51.456;7.622;2023-02-28T09:11:17;-0.30;99.90
15115;DHT22;7658;51.456;7.622;2023-02-28T09:13:44;-0.30;99.90
15115;DHT22;7658;51.456;7.622;2023-02-28T09:16:12;-0.40;99.90
15115;DHT22;7658;51.456;7.622;2023-02-28T09:18:39;-0.30;99.90
15115;DHT22;7658;51.456;7.622;2023-02-28T09:21:07;-0.40;99.90
15115;DHT22;7658;51.456;7.622;2023-02-28T09:23:33;-0.30;99.90
15115;DHT22;7658;51.456;7.622;2023-02-28T09:25:59;-0.30;99.90
15115;DHT22;7658;51.456;7.622;2023-02-28T09:28:25;-0.30;99.90
15115;DHT22;7658;51.456;7.622;2023-02-28T09:30:53;-0.30;99.90
15115;DHT22;7658;51.456;7.622;2023-02-28T09:33:21;-0.30;99.90
15115;DHT22;7658;51.456;7.622;2023-02-28T09:35:48;-0.20;99.90
15115;DHT22;7658;51.456;7.622;2023-02-28T09:38:14;-0.10;99.90
15115;DHT22;7658;51.456;7.622;2023-02-28T09:40:49;0.10;99.90
15115;DHT22;7658;51.456;7.622;2023-02-28T09:43:16;0.20;99.90
15115;DHT22;7658;51.456;7.622;2023-02-28T09:45:53;0.40;99.90
15115;DHT22;7658;51.456;7.622;2023-02-28T09:48:27;0.50;99.90
15115;DHT22;7658;51.456;7.622;2023-02-28T09:51:00;0.70;99.90
15115;DHT22;7658;51.456;7.622;2023-02-28T09:53:31;0.80;99.90
15115;DHT22;7658;51.456;7.622;2023-02-28T09:56:03;1.00;99.90
15115;DHT22;7658;51.456;7.622;2023-02-28T10:01:49;1.50;99.90
15115;DHT22;7658;51.456;7.622;2023-02-28T10:04:54;1.80;99.90
15115;DHT22;7658;51.456;7.622;2023-02-28T10:07:32;2.10;99.90
15115;DHT22;7658;51.456;7.622;2023-02-28T10:10:07;2.30;99.90
15115;DHT22;7658;51.456;7.622;2023-02-28T10:12:42;2.50;99.90
15115;DHT22;7658;51.456;7.622;2023-02-28T10:15:16;2.70;99.90
15115;DHT22;7658;51.456;7.622;2023-02-28T10:17:45;2.80;99.90
15115;DHT22;7658;51.456;7.622;2023-02-28T10:20:17;3.00;99.90
15115;DHT22;7658;51.456;7.622;2023-02-28T10:25:25;3.10;99.90
15115;DHT22;7658;51.456;7.622;2023-02-28T10:28:07;3.20;99.90
15115;DHT22;7658;51.456;7.622;2023-02-28T10:30:36;3.30;99.90
15115;DHT22;7658;51.456;7.622;2023-02-28T10:33:04;3.40;99.90
15115;DHT22;7658;51.456;7.622;2023-02-28T10:35:29;3.50;99.90
15115;DHT22;7658;51.456;7.622;2023-02-28T10:37:57;3.70;99.90
15115;DHT22;7658;51.456;7.622;2023-02-28T10:43:02;3.60;99.90
15115;DHT22;7658;51.456;7.622;2023-02-28T10:45:33;3.70;99.90
15115;DHT22;7658;51.456;7.622;2023-02-28T10:48:26;3.80;99.90
15115;DHT22;7658;51.456;7.622;2023-02-28T10:50:53;4.10;99.90
15115;DHT22;7658;51.456;7.622;2023-02-28T11:03:58;4.00;99.90
15115;DHT22;7658;51.456;7.622;2023-02-28T11:06:33;3.90;99.90
15115;DHT22;7658;51.456;7.622;2023-02-28T11:09:22;3.80;99.90
15115;DHT22;7658;51.456;7.622;2023-02-28T11:11:46;3.70;99.90
15115;DHT22;7658;51.456;7.622;2023-02-28T11:14:25;3.70;99.90
15115;DHT22;7658;51.456;7.622;2023-02-28T11:16:52;3.80;99.90
15115;DHT22;7658;51.456;7.622;2023-02-28T11:19:28;3.80;99.90
15115;DHT22;7658;51.456;7.622;2023-02-28T11:21:58;3.70;99.90
15115;DHT22;7658;51.456;7.622;2023-02-28T11:24:26;3.80;99.90
15115;DHT22;7658;51.456;7.622;2023-02-28T11:26:52;4.10;99.90
15115;DHT22;7658;51.456;7.622;2023-02-28T11:29:32;4.30;99.90
15115;DHT22;7658;51.456;7.622;2023-02-28T11:32:19;4.60;99.90
15115;DHT22;7658;51.456;7.622;2023-02-28T11:34:58;4.70;99.90
15115;DHT22;7658;51.456;7.622;2023-02-28T11:37:27;5.00;99.90
15115;DHT22;7658;51.456;7.622;2023-02-28T11:39:53;5.10;99.90
15115;DHT22;7658;51.456;7.622;2023-02-28T11:56:23;5.70;99.90
15115;DHT22;7658;51.456;7.622;2023-02-28T12:02:26;5.80;99.90
15115;DHT22;7658;51.456;7.622;2023-02-28T12:05:21;6.00;99.90
15115;DHT22;7658;51.456;7.622;2023-02-28T12:11:29;6.60;99.90
15115;DHT22;7658;51.456;7.622;2023-02-28T12:19:59;7.20;99.90
15115;DHT22;7658;51.456;7.622;2023-02-28T12:22:40;6.90;99.90
15115;DHT22;7658;51.456;7.622;2023-02-28T12:25:21;7.00;99.90
15115;DHT22;7658;51.456;7.622;2023-02-28T12:27:48;7.20;99.90
15115;DHT22;7658;51.456;7.622;2023-02-28T12:30:28;7.40;99.90
15115;DHT22;7658;51.456;7.622;2023-02-28T12:33:10;7.50;99.90
15115;DHT22;7658;51.456;7.622;2023-02-28T12:38:17;7.40;99.90
15115;DHT22;7658;51.456;7.622;2023-02-28T12:40:47;7.50;99.90
15115;DHT22;7658;51.456;7.622;2023-02-28T12:43:16;7.60;99.90
15115;DHT22;7658;51.456;7.622;2023-02-28T12:48:13;7.50;99.90
15115;DHT22;7658;51.456;7.622;2023-02-28T12:50:40;7.60;99.90
15115;DHT22;7658;51.456;7.622;2023-02-28T12:53:11;7.70;99.90
15115;DHT22;7658;51.456;7.622;2023-02-28T12:55:43;7.60;99.90
15115;DHT22;7658;51.456;7.622;2023-02-28T13:07:30;8.00;99.90
15115;DHT22;7658;51.456;7.622;2023-02-28T13:10:01;8.10;99.90
15115;DHT22;7658;51.456;7.622;2023-02-28T13:12:28;7.90;99.90
15115;DHT22;7658;51.456;7.622;2023-02-28T13:15:25;7.90;99.90
15115;DHT22;7658;51.456;7.622;2023-02-28T13:17:58;7.90;99.90
15115;DHT22;7658;51.456;7.622;2023-02-28T13:20:35;7.90;99.90
15115;DHT22;7658;51.456;7.622;2023-02-28T13:23:01;8.10;99.90
15115;DHT22;7658;51.456;7.622;2023-02-28T13:28:01;8.00;99.90
15115;DHT22;7658;51.456;7.622;2023-02-28T13:33:31;7.90;99.90
15115;DHT22;7658;51.456;7.622;2023-02-28T13:38:50;7.60;99.90
15115;DHT22;7658;51.456;7.622;2023-02-28T13:44:05;7.70;99.90
15115;DHT22;7658;51.456;7.622;2023-02-28T13:49:31;7.90;99.90
15115;DHT22;7658;51.456;7.622;2023-02-28T14:03:00;7.70;99.90
15115;DHT22;7658;51.456;7.622;2023-02-28T14:05:31;7.60;99.90
15115;DHT22;7658;51.456;7.622;2023-02-28T14:08:02;7.50;99.90
15115;DHT22;7658;51.456;7.622;2023-02-28T14:10:41;7.60;99.90
15115;DHT22;7658;51.456;7.622;2023-02-28T14:13:58;7.50;99.90
15115;DHT22;7658;51.456;7.622;2023-02-28T14:16:23;7.60;99.90
15115;DHT22;7658;51.456;7.622;2023-02-28T14:18:55;7.50;99.90
15115;DHT22;7658;51.456;7.622;2023-02-28T14:21:33;7.30;99.90
15115;DHT22;7658;51.456;7.622;2023-02-28T14:35:43;6.70;99.90
15115;DHT22;7658;51.456;7.622;2023-02-28T14:38:21;6.60;99.90
15115;DHT22;7658;51.456;7.622;2023-02-28T14:40:52;6.60;99.90
15115;DHT22;7658;51.456;7.622;2023-02-28T14:43:26;6.40;99.90
15115;DHT22;7658;51.456;7.622;2023-02-28T14:45:58;6.40;99.90
15115;DHT22;7658;51.456;7.622;2023-02-28T14:48:25;6.20;99.90
15115;DHT22;7658;51.456;7.622;2023-02-28T14:51:02;6.10;99.90
15115;DHT22;7658;51.456;7.622;2023-02-28T14:53:30;6.10;99.90
15115;DHT22;7658;51.456;7.622;2023-02-28T14:55:56;6.10;99.90
15115;DHT22;7658;51.456;7.622;2023-02-28T14:58:30;6.00;99.90
15115;DHT22;7658;51.456;7.622;2023-02-28T15:00:59;5.90;99.90
15115;DHT22;7658;51.456;7.622;2023-02-28T15:03:37;5.80;99.90
15115;DHT22;7658;51.456;7.622;2023-02-28T15:08:32;5.50;99.90
15115;DHT22;7658;51.456;7.622;2023-02-28T15:13:42;5.40;99.90
15115;DHT22;7658;51.456;7.622;2023-02-28T15:21:18;5.30;99.90
15115;DHT22;7658;51.456;7.622;2023-02-28T15:23:52;5.20;99.90
15115;DHT22;7658;51.456;7.622;2023-02-28T15:26:22;5.20;99.90
15115;DHT22;7658;51.456;7.622;2023-02-28T15:29:00;5.20;99.90
15115;DHT22;7658;51.456;7.622;2023-02-28T15:31:40;5.10;99.90
15115;DHT22;7658;51.456;7.622;2023-02-28T15:34:22;5.10;99.90
15115;DHT22;7658;51.456;7.622;2023-02-28T15:36:48;5.10;99.90
15115;DHT22;7658;51.456;7.622;2023-02-28T15:39:28;5.00;99.90
15115;DHT22;7658;51.456;7.622;2023-02-28T15:42:19;5.10;99.90
15115;DHT22;7658;51.456;7.622;2023-02-28T15:44:45;5.00;99.90
15115;DHT22;7658;51.456;7.622;2023-02-28T15:47:21;4.90;99.90
15115;DHT22;7658;51.456;7.622;2023-02-28T15:49:59;4.90;99.90
15115;DHT22;7658;51.456;7.622;2023-02-28T15:52:38;4.90;99.90
15115;DHT22;7658;51.456;7.622;2023-02-28T15:57:45;4.70;99.90
15115;DHT22;7658;51.456;7.622;2023-02-28T16:00:14;4.70;99.90
15115;DHT22;7658;51.456;7.622;2023-02-28T16:02:40;4.60;99.90
15115;DHT22;7658;51.456;7.622;2023-02-28T16:07:32;4.50;99.90
15115;DHT22;7658;51.456;7.622;2023-02-28T16:09:59;4.50;99.90
15115;DHT22;7658;51.456;7.622;2023-02-28T16:12:28;4.50;99.90
15115;DHT22;7658;51.456;7.622;2023-02-28T16:14:55;4.40;99.90
15115;DHT22;7658;51.456;7.622;2023-02-28T16:17:25;4.30;99.90
15115;DHT22;7658;51.456;7.622;2023-02-28T16:19:51;4.30;99.90
15115;DHT22;7658;51.456;7.622;2023-02-28T16:22:17;4.20;99.90
15115;DHT22;7658;51.456;7.622;2023-02-28T16:24:43;4.20;99.90
15115;DHT22;7658;51.456;7.622;2023-02-28T16:29:42;4.20;99.90
15115;DHT22;7658;51.456;7.622;2023-02-28T16:32:13;4.10;99.90
15115;DHT22;7658;51.456;7.622;2023-02-28T16:34:39;4.10;99.90
15115;DHT22;7658;51.456;7.622;2023-02-28T16:37:13;4.00;99.90
15115;DHT22;7658;51.456;7.622;2023-02-28T16:39:40;4.00;99.90
15115;DHT22;7658;51.456;7.622;2023-02-28T16:42:08;4.00;99.90
15115;DHT22;7658;51.456;7.622;2023-02-28T16:44:36;3.90;99.90
15115;DHT22;7658;51.456;7.622;2023-02-28T16:47:03;3.90;99.90
15115;DHT22;7658;51.456;7.622;2023-02-28T16:49:30;3.80;99.90
15115;DHT22;7658;51.456;7.622;2023-02-28T16:51:56;3.80;99.90
15115;DHT22;7658;51.456;7.622;2023-02-28T16:54:22;3.80;99.90
15115;DHT22;7658;51.456;7.622;2023-02-28T16:56:48;3.70;99.90
15115;DHT22;7658;51.456;7.622;2023-02-28T16:59:24;3.70;99.90
15115;DHT22;7658;51.456;7.622;2023-02-28T17:01:51;3.60;99.90
15115;DHT22;7658;51.456;7.622;2023-02-28T17:04:17;3.60;99.90
15115;DHT22;7658;51.456;7.622;2023-02-28T17:06:43;3.50;99.90
15115;DHT22;7658;51.456;7.622;2023-02-28T17:09:21;3.50;99.90
15115;DHT22;7658;51.456;7.622;2023-02-28T17:11:48;3.40;99.90
15115;DHT22;7658;51.456;7.622;2023-02-28T17:14:14;3.40;99.90
15115;DHT22;7658;51.456;7.622;2023-02-28T17:16:40;3.40;99.90
15115;DHT22;7658;51.456;7.622;2023-02-28T17:19:13;3.30;99.90
15115;DHT22;7658;51.456;7.622;2023-02-28T17:21:40;3.30;99.90
15115;DHT22;7658;51.456;7.622;2023-02-28T17:24:08;3.20;99.90
15115;DHT22;7658;51.456;7.622;2023-02-28T17:26:34;3.20;99.90
15115;DHT22;7658;51.456;7.622;2023-02-28T17:29:00;3.20;99.90
15115;DHT22;7658;51.456;7.622;2023-02-28T17:31:26;3.10;99.90
15115;DHT22;7658;51.456;7.622;2023-02-28T17:33:53;3.10;99.90
15115;DHT22;7658;51.456;7.622;2023-02-28T17:36:26;3.10;99.90
15115;DHT22;7658;51.456;7.622;2023-02-28T17:38:53;3.00;99.90
15115;DHT22;7658;51.456;7.622;2023-02-28T17:41:20;2.90;99.90
15115;DHT22;7658;51.456;7.622;2023-02-28T17:43:46;2.90;99.90
15115;DHT22;7658;51.456;7.622;2023-02-28T17:46:23;2.80;99.90
15115;DHT22;7658;51.456;7.622;2023-02-28T17:48:50;2.80;99.90
15115;DHT22;7658;51.456;7.622;2023-02-28T17:51:17;2.80;99.90
15115;DHT22;7658;51.456;7.622;2023-02-28T17:53:43;2.70;99.90
15115;DHT22;7658;51.456;7.622;2023-02-28T17:56:21;2.70;99.90
15115;DHT22;7658;51.456;7.622;2023-02-28T17:58:48;2.70;99.90
15115;DHT22;7658;51.456;7.622;2023-02-28T18:01:14;2.70;99.90
15115;DHT22;7658;51.456;7.622;2023-02-28T18:03:41;2.60;99.90
15115;DHT22;7658;51.456;7.622;2023-02-28T18:06:35;2.60;99.90
15115;DHT22;7658;51.456;7.622;2023-02-28T18:08:58;2.60;99.90
15115;DHT22;7658;51.456;7.622;2023-02-28T18:11:24;2.60;99.90
15115;DHT22;7658;51.456;7.622;2023-02-28T18:13:52;2.60;99.90
15115;DHT22;7658;51.456;7.622;2023-02-28T18:16:19;2.50;99.90
15115;DHT22;7658;51.456;7.622;2023-02-28T18:18:46;2.40;99.90
15115;DHT22;7658;51.456;7.622;2023-02-28T18:21:14;2.30;99.90
15115;DHT22;7658;51.456;7.622;2023-02-28T18:23:40;2.20;99.90
15115;DHT22;7658;51.456;7.622;2023-02-28T18:26:14;2.20;99.90
15115;DHT22;7658;51.456;7.622;2023-02-28T18:28:40;2.20;99.90
15115;DHT22;7658;51.456;7.622;2023-02-28T18:31:17;2.10;99.90
15115;DHT22;7658;51.456;7.622;2023-02-28T18:33:47;2.10;99.90
15115;DHT22;7658;51.456;7.622;2023-02-28T18:36:13;2.00;99.90
15115;DHT22;7658;51.456;7.622;2023-02-28T18:38:39;2.00;99.90